sensor_id;sensor_type;location;lat;lon;timestamp;P1;durP1;ratioP1;P2;durP2;ratioP2
42912;SDS011;50720;54.324;18.558;2022-12-29T00:00:21;9.48;;;7.03;;
42912;SDS011;50720;54.324;18.558;2022-12-29T00:03:11;9.15;;;6.95;;
42912;SDS011;50720;54.324;18.558;2022-12-29T00:05:41;17.80;;;7.97;;
42912;SDS011;50720;54.324;18.558;2022-12-29T00:08:10;11.00;;;7.55;;
42912;SDS011;50720;54.324;18.558;2022-12-29T00:10:41;9.90;;;6.40;;
42912;SDS011;50720;54.324;18.558;2022-12-29T00:13:11;10.00;;;6.57;;
42912;SDS011;50720;54.324;18.558;2022-12-29T00:15:58;13.40;;;6.60;;
42912;SDS011;50720;54.324;18.558;2022-12-29T00:18:27;8.52;;;6.18;;
42912;SDS011;50720;54.324;18.558;2022-12-29T00:20:57;11.30;;;6.47;;
42912;SDS011;50720;54.324;18.558;2022-12-29T00:23:44;6.97;;;5.47;;
42912;SDS011;50720;54.324;18.558;2022-12-29T00:26:32;11.05;;;6.93;;
42912;SDS011;50720;54.324;18.558;2022-12-29T00:29:19;11.73;;;5.90;;
42912;SDS011;50720;54.324;18.558;2022-12-29T00:32:06;10.05;;;5.95;;
42912;SDS011;50720;54.324;18.558;2022-12-29T00:34:55;12.13;;;5.60;;
42912;SDS011;50720;54.324;18.558;2022-12-29T00:37:46;9.07;;;5.43;;
42912;SDS011;50720;54.324;18.558;2022-12-29T00:40:34;5.68;;;4.05;;
42912;SDS011;50720;54.324;18.558;2022-12-29T00:43:22;6.13;;;4.35;;
42912;SDS011;50720;54.324;18.558;2022-12-29T00:46:09;6.95;;;5.15;;
42912;SDS011;50720;54.324;18.558;2022-12-29T00:48:45;8.43;;;4.10;;
42912;SDS011;50720;54.324;18.558;2022-12-29T00:51:33;4.80;;;3.67;;
42912;SDS011;50720;54.324;18.558;2022-12-29T00:54:02;4.43;;;3.72;;
42912;SDS011;50720;54.324;18.558;2022-12-29T00:56:33;4.10;;;3.47;;
42912;SDS011;50720;54.324;18.558;2022-12-29T00:59:04;8.70;;;3.40;;
42912;SDS011;50720;54.324;18.558;2022-12-29T01:01:36;4.65;;;3.10;;
42912;SDS011;50720;54.324;18.558;2022-12-29T01:04:06;4.72;;;3.40;;
42912;SDS011;50720;54.324;18.558;2022-12-29T01:06:37;4.10;;;2.70;;
42912;SDS011;50720;54.324;18.558;2022-12-29T01:09:07;3.28;;;2.67;;
42912;SDS011;50720;54.324;18.558;2022-12-29T01:12:10;5.95;;;3.38;;
42912;SDS011;50720;54.324;18.558;2022-12-29T01:14:41;3.40;;;2.70;;
42912;SDS011;50720;54.324;18.558;2022-12-29T01:17:11;3.60;;;3.00;;
42912;SDS011;50720;54.324;18.558;2022-12-29T01:19:40;3.10;;;2.80;;
42912;SDS011;50720;54.324;18.558;2022-12-29T01:22:10;5.60;;;3.53;;
42912;SDS011;50720;54.324;18.558;2022-12-29T01:24:39;6.35;;;2.80;;
42912;SDS011;50720;54.324;18.558;2022-12-29T01:27:09;6.93;;;3.58;;
42912;SDS011;50720;54.324;18.558;2022-12-29T01:29:39;3.80;;;2.95;;
42912;SDS011;50720;54.324;18.558;2022-12-29T01:32:10;3.72;;;3.28;;
42912;SDS011;50720;54.324;18.558;2022-12-29T01:34:39;5.20;;;2.65;;
42912;SDS011;50720;54.324;18.558;2022-12-29T01:37:09;3.33;;;3.03;;
42912;SDS011;50720;54.324;18.558;2022-12-29T01:39:39;6.18;;;3.47;;
42912;SDS011;50720;54.324;18.558;2022-12-29T01:42:11;3.42;;;2.70;;
42912;SDS011;50720;54.324;18.558;2022-12-29T01:44:53;4.78;;;3.08;;
42912;SDS011;50720;54.324;18.558;2022-12-29T01:47:32;3.63;;;2.67;;
42912;SDS011;50720;54.324;18.558;2022-12-29T01:50:07;4.32;;;2.45;;
42912;SDS011;50720;54.324;18.558;2022-12-29T01:52:44;3.38;;;2.40;;
42912;SDS011;50720;54.324;18.558;2022-12-29T01:55:19;5.00;;;3.33;;
42912;SDS011;50720;54.324;18.558;2022-12-29T01:57:50;4.13;;;2.80;;
42912;SDS011;50720;54.324;18.558;2022-12-29T02:00:26;4.82;;;3.15;;
42912;SDS011;50720;54.324;18.558;2022-12-29T02:02:56;2.92;;;2.63;;
42912;SDS011;50720;54.324;18.558;2022-12-29T02:05:27;3.00;;;2.60;;
42912;SDS011;50720;54.324;18.558;2022-12-29T02:08:03;2.83;;;2.50;;
42912;SDS011;50720;54.324;18.558;2022-12-29T02:10:33;5.85;;;2.67;;
42912;SDS011;50720;54.324;18.558;2022-12-29T02:13:05;2.20;;;2.00;;
42912;SDS011;50720;54.324;18.558;2022-12-29T02:15:39;2.53;;;2.33;;
42912;SDS011;50720;54.324;18.558;2022-12-29T02:18:26;3.80;;;2.22;;
42912;SDS011;50720;54.324;18.558;2022-12-29T02:24:32;2.60;;;2.20;;
42912;SDS011;50720;54.324;18.558;2022-12-29T02:27:29;3.90;;;2.13;;
42912;SDS011;50720;54.324;18.558;2022-12-29T02:30:27;3.80;;;2.60;;
42912;SDS011;50720;54.324;18.558;2022-12-29T02:33:11;3.28;;;2.90;;
42912;SDS011;50720;54.324;18.558;2022-12-29T02:35:52;3.58;;;2.13;;
42912;SDS011;50720;54.324;18.558;2022-12-29T02:38:33;3.30;;;2.35;;
42912;SDS011;50720;54.324;18.558;2022-12-29T02:41:18;3.65;;;2.40;;
42912;SDS011;50720;54.324;18.558;2022-12-29T02:43:50;2.60;;;1.88;;
42912;SDS011;50720;54.324;18.558;2022-12-29T02:46:31;2.67;;;1.77;;
42912;SDS011;50720;54.324;18.558;2022-12-29T02:49:06;2.60;;;1.88;;
42912;SDS011;50720;54.324;18.558;2022-12-29T02:51:45;2.58;;;1.90;;
42912;SDS011;50720;54.324;18.558;2022-12-29T02:54:19;2.88;;;2.38;;
42912;SDS011;50720;54.324;18.558;2022-12-29T02:57:08;2.60;;;2.40;;
42912;SDS011;50720;54.324;18.558;2022-12-29T02:59:44;3.20;;;2.20;;
42912;SDS011;50720;54.324;18.558;2022-12-29T03:02:27;2.72;;;2.33;;
42912;SDS011;50720;54.324;18.558;2022-12-29T03:05:22;4.75;;;2.50;;
42912;SDS011;50720;54.324;18.558;2022-12-29T03:08:04;3.38;;;2.70;;
42912;SDS011;50720;54.324;18.558;2022-12-29T03:10:41;4.22;;;2.47;;
42912;SDS011;50720;54.324;18.558;2022-12-29T03:13:19;4.32;;;2.92;;
42912;SDS011;50720;54.324;18.558;2022-12-29T03:16:12;4.18;;;3.15;;
42912;SDS011;50720;54.324;18.558;2022-12-29T03:18:55;5.00;;;3.22;;
42912;SDS011;50720;54.324;18.558;2022-12-29T03:21:31;4.55;;;3.30;;
42912;SDS011;50720;54.324;18.558;2022-12-29T03:24:20;4.78;;;3.53;;
42912;SDS011;50720;54.324;18.558;2022-12-29T03:26:54;6.00;;;4.47;;
42912;SDS011;50720;54.324;18.558;2022-12-29T03:29:26;4.43;;;3.90;;
42912;SDS011;50720;54.324;18.558;2022-12-29T03:32:00;4.95;;;3.55;;
42912;SDS011;50720;54.324;18.558;2022-12-29T03:34:33;4.82;;;3.67;;
42912;SDS011;50720;54.324;18.558;2022-12-29T03:37:06;4.70;;;4.03;;
42912;SDS011;50720;54.324;18.558;2022-12-29T03:39:41;4.68;;;3.80;;
42912;SDS011;50720;54.324;18.558;2022-12-29T03:42:11;5.60;;;4.78;;
42912;SDS011;50720;54.324;18.558;2022-12-29T03:44:45;4.82;;;4.30;;
42912;SDS011;50720;54.324;18.558;2022-12-29T03:47:14;6.93;;;5.38;;
42912;SDS011;50720;54.324;18.558;2022-12-29T03:49:46;7.50;;;6.00;;
42912;SDS011;50720;54.324;18.558;2022-12-29T03:52:17;11.02;;;6.30;;
42912;SDS011;50720;54.324;18.558;2022-12-29T03:54:47;10.63;;;6.27;;
42912;SDS011;50720;54.324;18.558;2022-12-29T03:57:16;7.45;;;6.30;;
42912;SDS011;50720;54.324;18.558;2022-12-29T03:59:46;7.70;;;6.20;;
42912;SDS011;50720;54.324;18.558;2022-12-29T04:02:16;8.88;;;5.55;;
42912;SDS011;50720;54.324;18.558;2022-12-29T04:04:47;10.13;;;6.90;;
42912;SDS011;50720;54.324;18.558;2022-12-29T04:07:17;8.90;;;6.38;;
42912;SDS011;50720;54.324;18.558;2022-12-29T04:09:46;11.38;;;7.05;;
42912;SDS011;50720;54.324;18.558;2022-12-29T04:12:16;11.57;;;7.82;;
42912;SDS011;50720;54.324;18.558;2022-12-29T04:14:46;12.77;;;8.00;;
42912;SDS011;50720;54.324;18.558;2022-12-29T04:17:15;14.40;;;8.15;;
42912;SDS011;50720;54.324;18.558;2022-12-29T04:19:47;12.23;;;8.37;;
42912;SDS011;50720;54.324;18.558;2022-12-29T04:24:45;14.13;;;8.70;;
42912;SDS011;50720;54.324;18.558;2022-12-29T04:27:15;13.23;;;9.60;;
42912;SDS011;50720;54.324;18.558;2022-12-29T04:29:44;15.60;;;9.52;;
42912;SDS011;50720;54.324;18.558;2022-12-29T04:32:14;13.95;;;8.75;;
42912;SDS011;50720;54.324;18.558;2022-12-29T04:34:45;13.45;;;8.57;;
42912;SDS011;50720;54.324;18.558;2022-12-29T04:37:15;12.68;;;9.35;;
42912;SDS011;50720;54.324;18.558;2022-12-29T04:39:46;17.52;;;9.52;;
42912;SDS011;50720;54.324;18.558;2022-12-29T04:42:15;14.52;;;8.43;;
42912;SDS011;50720;54.324;18.558;2022-12-29T04:44:45;13.35;;;8.23;;
42912;SDS011;50720;54.324;18.558;2022-12-29T04:47:14;11.80;;;9.27;;
42912;SDS011;50720;54.324;18.558;2022-12-29T04:49:44;16.70;;;10.27;;
42912;SDS011;50720;54.324;18.558;2022-12-29T04:54:45;15.07;;;8.48;;
42912;SDS011;50720;54.324;18.558;2022-12-29T04:57:15;13.35;;;8.63;;
42912;SDS011;50720;54.324;18.558;2022-12-29T04:59:44;19.00;;;9.32;;
42912;SDS011;50720;54.324;18.558;2022-12-29T05:02:14;15.55;;;8.88;;
42912;SDS011;50720;54.324;18.558;2022-12-29T05:04:44;10.45;;;7.68;;
42912;SDS011;50720;54.324;18.558;2022-12-29T05:07:15;17.05;;;8.32;;
42912;SDS011;50720;54.324;18.558;2022-12-29T05:09:45;12.63;;;8.87;;
42912;SDS011;50720;54.324;18.558;2022-12-29T05:12:15;14.05;;;9.23;;
42912;SDS011;50720;54.324;18.558;2022-12-29T05:14:45;14.32;;;9.07;;
42912;SDS011;50720;54.324;18.558;2022-12-29T05:17:14;15.45;;;8.82;;
42912;SDS011;50720;54.324;18.558;2022-12-29T05:19:44;15.38;;;10.68;;
42912;SDS011;50720;54.324;18.558;2022-12-29T05:22:15;14.95;;;9.02;;
42912;SDS011;50720;54.324;18.558;2022-12-29T05:24:45;21.13;;;9.52;;
42912;SDS011;50720;54.324;18.558;2022-12-29T05:27:14;12.73;;;8.52;;
42912;SDS011;50720;54.324;18.558;2022-12-29T05:29:45;13.10;;;8.43;;
42912;SDS011;50720;54.324;18.558;2022-12-29T05:32:14;15.55;;;9.27;;
42912;SDS011;50720;54.324;18.558;2022-12-29T05:34:45;18.88;;;10.57;;
42912;SDS011;50720;54.324;18.558;2022-12-29T05:37:15;15.15;;;8.95;;
42912;SDS011;50720;54.324;18.558;2022-12-29T05:39:45;14.20;;;8.40;;
42912;SDS011;50720;54.324;18.558;2022-12-29T05:42:14;11.80;;;8.38;;
42912;SDS011;50720;54.324;18.558;2022-12-29T05:44:44;12.50;;;8.98;;
42912;SDS011;50720;54.324;18.558;2022-12-29T05:47:13;13.05;;;7.45;;
42912;SDS011;50720;54.324;18.558;2022-12-29T05:49:43;13.85;;;8.82;;
42912;SDS011;50720;54.324;18.558;2022-12-29T05:52:14;12.63;;;9.02;;
42912;SDS011;50720;54.324;18.558;2022-12-29T05:54:44;16.67;;;8.70;;
42912;SDS011;50720;54.324;18.558;2022-12-29T05:57:14;17.58;;;9.10;;
42912;SDS011;50720;54.324;18.558;2022-12-29T05:59:43;14.07;;;8.65;;
42912;SDS011;50720;54.324;18.558;2022-12-29T06:02:13;10.57;;;8.40;;
42912;SDS011;50720;54.324;18.558;2022-12-29T06:04:43;15.05;;;7.75;;
42912;SDS011;50720;54.324;18.558;2022-12-29T06:07:14;13.95;;;7.97;;
42912;SDS011;50720;54.324;18.558;2022-12-29T06:09:44;14.60;;;8.90;;
42912;SDS011;50720;54.324;18.558;2022-12-29T06:12:13;10.98;;;7.72;;
42912;SDS011;50720;54.324;18.558;2022-12-29T06:14:43;14.43;;;8.13;;
42912;SDS011;50720;54.324;18.558;2022-12-29T06:17:13;16.45;;;7.68;;
42912;SDS011;50720;54.324;18.558;2022-12-29T06:19:43;12.23;;;8.43;;
42912;SDS011;50720;54.324;18.558;2022-12-29T06:22:14;14.75;;;8.55;;
42912;SDS011;50720;54.324;18.558;2022-12-29T06:24:44;12.05;;;7.82;;
42912;SDS011;50720;54.324;18.558;2022-12-29T06:27:13;13.43;;;7.88;;
42912;SDS011;50720;54.324;18.558;2022-12-29T06:29:43;13.43;;;8.20;;
42912;SDS011;50720;54.324;18.558;2022-12-29T06:32:13;11.70;;;8.18;;
42912;SDS011;50720;54.324;18.558;2022-12-29T06:34:43;14.82;;;8.57;;
42912;SDS011;50720;54.324;18.558;2022-12-29T06:37:14;15.65;;;8.23;;
42912;SDS011;50720;54.324;18.558;2022-12-29T06:39:44;12.13;;;7.95;;
42912;SDS011;50720;54.324;18.558;2022-12-29T06:42:13;13.43;;;7.15;;
42912;SDS011;50720;54.324;18.558;2022-12-29T06:44:43;10.02;;;7.40;;
42912;SDS011;50720;54.324;18.558;2022-12-29T06:47:13;16.95;;;7.45;;
42912;SDS011;50720;54.324;18.558;2022-12-29T06:49:42;9.10;;;6.22;;
42912;SDS011;50720;54.324;18.558;2022-12-29T06:52:13;10.00;;;7.07;;
42912;SDS011;50720;54.324;18.558;2022-12-29T06:54:43;9.40;;;6.88;;
42912;SDS011;50720;54.324;18.558;2022-12-29T06:57:13;12.25;;;7.10;;
42912;SDS011;50720;54.324;18.558;2022-12-29T06:59:43;13.30;;;7.80;;
42912;SDS011;50720;54.324;18.558;2022-12-29T07:02:12;10.88;;;7.43;;
42912;SDS011;50720;54.324;18.558;2022-12-29T07:04:45;16.75;;;7.63;;
42912;SDS011;50720;54.324;18.558;2022-12-29T07:07:16;10.50;;;7.18;;
42912;SDS011;50720;54.324;18.558;2022-12-29T07:09:46;10.95;;;6.90;;
42912;SDS011;50720;54.324;18.558;2022-12-29T07:12:15;12.18;;;7.22;;
42912;SDS011;50720;54.324;18.558;2022-12-29T07:14:45;10.35;;;6.53;;
42912;SDS011;50720;54.324;18.558;2022-12-29T07:17:14;11.07;;;6.82;;
42912;SDS011;50720;54.324;18.558;2022-12-29T07:19:44;14.52;;;7.25;;
42912;SDS011;50720;54.324;18.558;2022-12-29T07:22:14;12.35;;;7.05;;
42912;SDS011;50720;54.324;18.558;2022-12-29T07:24:45;13.70;;;8.75;;
42912;SDS011;50720;54.324;18.558;2022-12-29T07:27:14;11.43;;;6.97;;
42912;SDS011;50720;54.324;18.558;2022-12-29T07:29:44;12.25;;;7.25;;
42912;SDS011;50720;54.324;18.558;2022-12-29T07:32:13;10.60;;;7.15;;
42912;SDS011;50720;54.324;18.558;2022-12-29T07:34:43;11.60;;;7.20;;
42912;SDS011;50720;54.324;18.558;2022-12-29T07:37:15;11.77;;;8.20;;
42912;SDS011;50720;54.324;18.558;2022-12-29T07:39:45;12.27;;;7.80;;
42912;SDS011;50720;54.324;18.558;2022-12-29T07:42:15;12.93;;;7.82;;
42912;SDS011;50720;54.324;18.558;2022-12-29T07:44:45;12.32;;;8.40;;
42912;SDS011;50720;54.324;18.558;2022-12-29T07:47:14;15.50;;;8.45;;
42912;SDS011;50720;54.324;18.558;2022-12-29T07:49:44;10.93;;;8.15;;
42912;SDS011;50720;54.324;18.558;2022-12-29T07:52:15;15.00;;;8.80;;
42912;SDS011;50720;54.324;18.558;2022-12-29T07:54:45;11.45;;;7.40;;
42912;SDS011;50720;54.324;18.558;2022-12-29T07:57:14;13.13;;;8.52;;
42912;SDS011;50720;54.324;18.558;2022-12-29T07:59:44;10.18;;;7.38;;
42912;SDS011;50720;54.324;18.558;2022-12-29T08:02:13;11.05;;;6.80;;
42912;SDS011;50720;54.324;18.558;2022-12-29T08:04:43;10.68;;;7.50;;
42912;SDS011;50720;54.324;18.558;2022-12-29T08:07:13;12.45;;;7.55;;
42912;SDS011;50720;54.324;18.558;2022-12-29T08:09:44;12.02;;;7.38;;
42912;SDS011;50720;54.324;18.558;2022-12-29T08:12:13;11.93;;;7.72;;
42912;SDS011;50720;54.324;18.558;2022-12-29T08:14:43;9.68;;;7.18;;
42912;SDS011;50720;54.324;18.558;2022-12-29T08:17:12;8.40;;;6.60;;
42912;SDS011;50720;54.324;18.558;2022-12-29T08:19:42;8.90;;;6.07;;
42912;SDS011;50720;54.324;18.558;2022-12-29T08:22:12;14.60;;;7.47;;
42912;SDS011;50720;54.324;18.558;2022-12-29T08:24:44;13.15;;;7.75;;
42912;SDS011;50720;54.324;18.558;2022-12-29T08:27:14;11.15;;;7.03;;
42912;SDS011;50720;54.324;18.558;2022-12-29T08:29:47;9.85;;;7.22;;
42912;SDS011;50720;54.324;18.558;2022-12-29T08:32:17;10.60;;;6.40;;
42912;SDS011;50720;54.324;18.558;2022-12-29T08:34:47;8.75;;;6.15;;
42912;SDS011;50720;54.324;18.558;2022-12-29T08:37:16;12.90;;;7.53;;
42912;SDS011;50720;54.324;18.558;2022-12-29T08:39:47;14.82;;;7.55;;
42912;SDS011;50720;54.324;18.558;2022-12-29T08:42:17;13.05;;;7.75;;
42912;SDS011;50720;54.324;18.558;2022-12-29T08:44:46;9.50;;;6.63;;
42912;SDS011;50720;54.324;18.558;2022-12-29T08:47:16;9.50;;;6.22;;
42912;SDS011;50720;54.324;18.558;2022-12-29T08:49:45;8.90;;;6.90;;
42912;SDS011;50720;54.324;18.558;2022-12-29T08:52:15;10.27;;;6.53;;
42912;SDS011;50720;54.324;18.558;2022-12-29T08:54:44;13.77;;;7.25;;
42912;SDS011;50720;54.324;18.558;2022-12-29T08:57:15;10.32;;;6.85;;
42912;SDS011;50720;54.324;18.558;2022-12-29T08:59:45;13.43;;;7.82;;
42912;SDS011;50720;54.324;18.558;2022-12-29T09:02:15;12.35;;;7.78;;
42912;SDS011;50720;54.324;18.558;2022-12-29T09:04:51;10.13;;;7.35;;
42912;SDS011;50720;54.324;18.558;2022-12-29T09:07:20;11.60;;;7.32;;
42912;SDS011;50720;54.324;18.558;2022-12-29T09:09:50;11.65;;;7.15;;
42912;SDS011;50720;54.324;18.558;2022-12-29T09:12:21;12.80;;;7.10;;
42912;SDS011;50720;54.324;18.558;2022-12-29T09:14:51;9.63;;;6.63;;
42912;SDS011;50720;54.324;18.558;2022-12-29T09:17:21;10.43;;;7.15;;
42912;SDS011;50720;54.324;18.558;2022-12-29T09:20:08;10.82;;;7.75;;
42912;SDS011;50720;54.324;18.558;2022-12-29T09:22:37;14.57;;;6.78;;
42912;SDS011;50720;54.324;18.558;2022-12-29T09:25:08;8.10;;;6.38;;
42912;SDS011;50720;54.324;18.558;2022-12-29T09:27:40;11.23;;;7.65;;
42912;SDS011;50720;54.324;18.558;2022-12-29T09:30:11;12.93;;;8.25;;
42912;SDS011;50720;54.324;18.558;2022-12-29T09:32:41;11.65;;;6.97;;
42912;SDS011;50720;54.324;18.558;2022-12-29T09:35:15;11.10;;;7.03;;
42912;SDS011;50720;54.324;18.558;2022-12-29T09:37:45;14.13;;;8.20;;
42912;SDS011;50720;54.324;18.558;2022-12-29T09:40:18;10.75;;;6.72;;
42912;SDS011;50720;54.324;18.558;2022-12-29T09:43:00;8.48;;;6.75;;
42912;SDS011;50720;54.324;18.558;2022-12-29T09:45:52;10.50;;;7.20;;
42912;SDS011;50720;54.324;18.558;2022-12-29T09:48:29;18.42;;;7.57;;
42912;SDS011;50720;54.324;18.558;2022-12-29T09:51:02;9.77;;;6.50;;
42912;SDS011;50720;54.324;18.558;2022-12-29T09:53:38;9.45;;;5.53;;
42912;SDS011;50720;54.324;18.558;2022-12-29T09:56:13;8.75;;;6.50;;
42912;SDS011;50720;54.324;18.558;2022-12-29T09:58:49;7.40;;;5.97;;
42912;SDS011;50720;54.324;18.558;2022-12-29T10:01:23;7.88;;;5.63;;
42912;SDS011;50720;54.324;18.558;2022-12-29T10:03:57;11.32;;;6.35;;
42912;SDS011;50720;54.324;18.558;2022-12-29T10:06:32;13.85;;;5.72;;
42912;SDS011;50720;54.324;18.558;2022-12-29T10:09:30;10.27;;;6.20;;
42912;SDS011;50720;54.324;18.558;2022-12-29T10:12:06;9.55;;;5.47;;
42912;SDS011;50720;54.324;18.558;2022-12-29T10:14:52;8.68;;;5.13;;
42912;SDS011;50720;54.324;18.558;2022-12-29T10:17:34;9.52;;;5.45;;
42912;SDS011;50720;54.324;18.558;2022-12-29T10:20:17;8.48;;;4.88;;
42912;SDS011;50720;54.324;18.558;2022-12-29T10:23:01;6.28;;;5.07;;
42912;SDS011;50720;54.324;18.558;2022-12-29T10:25:40;11.25;;;4.88;;
42912;SDS011;50720;54.324;18.558;2022-12-29T10:28:15;8.02;;;5.57;;
42912;SDS011;50720;54.324;18.558;2022-12-29T10:30:49;10.57;;;6.60;;
42912;SDS011;50720;54.324;18.558;2022-12-29T10:33:21;8.60;;;5.25;;
42912;SDS011;50720;54.324;18.558;2022-12-29T10:35:56;6.22;;;4.95;;
42912;SDS011;50720;54.324;18.558;2022-12-29T10:38:27;9.80;;;5.20;;
42912;SDS011;50720;54.324;18.558;2022-12-29T10:41:05;8.85;;;5.43;;
42912;SDS011;50720;54.324;18.558;2022-12-29T10:43:43;8.18;;;4.85;;
42912;SDS011;50720;54.324;18.558;2022-12-29T10:46:17;11.15;;;6.45;;
42912;SDS011;50720;54.324;18.558;2022-12-29T10:48:56;8.13;;;5.15;;
42912;SDS011;50720;54.324;18.558;2022-12-29T10:51:28;12.43;;;4.75;;
42912;SDS011;50720;54.324;18.558;2022-12-29T10:54:01;7.60;;;5.05;;
42912;SDS011;50720;54.324;18.558;2022-12-29T10:56:35;8.77;;;5.60;;
42912;SDS011;50720;54.324;18.558;2022-12-29T10:59:13;7.13;;;6.38;;
42912;SDS011;50720;54.324;18.558;2022-12-29T11:01:57;7.60;;;4.30;;
42912;SDS011;50720;54.324;18.558;2022-12-29T11:04:50;7.28;;;4.72;;
42912;SDS011;50720;54.324;18.558;2022-12-29T11:07:25;7.70;;;4.20;;
42912;SDS011;50720;54.324;18.558;2022-12-29T11:09:55;9.63;;;4.75;;
42912;SDS011;50720;54.324;18.558;2022-12-29T11:12:54;15.73;;;5.55;;
42912;SDS011;50720;54.324;18.558;2022-12-29T11:15:25;5.40;;;4.35;;
42912;SDS011;50720;54.324;18.558;2022-12-29T11:17:57;6.70;;;4.53;;
42912;SDS011;50720;54.324;18.558;2022-12-29T11:20:29;9.20;;;4.90;;
42912;SDS011;50720;54.324;18.558;2022-12-29T11:23:01;7.68;;;4.88;;
42912;SDS011;50720;54.324;18.558;2022-12-29T11:25:32;12.35;;;5.03;;
42912;SDS011;50720;54.324;18.558;2022-12-29T11:28:02;9.82;;;5.07;;
42912;SDS011;50720;54.324;18.558;2022-12-29T11:30:44;8.15;;;5.47;;
42912;SDS011;50720;54.324;18.558;2022-12-29T11:35:57;14.77;;;6.30;;
42912;SDS011;50720;54.324;18.558;2022-12-29T11:38:33;7.70;;;5.15;;
42912;SDS011;50720;54.324;18.558;2022-12-29T11:41:05;7.60;;;4.82;;
42912;SDS011;50720;54.324;18.558;2022-12-29T11:43:40;5.78;;;4.57;;
42912;SDS011;50720;54.324;18.558;2022-12-29T11:46:13;7.07;;;5.32;;
42912;SDS011;50720;54.324;18.558;2022-12-29T11:48:47;8.05;;;5.20;;
42912;SDS011;50720;54.324;18.558;2022-12-29T11:51:21;6.10;;;4.63;;
42912;SDS011;50720;54.324;18.558;2022-12-29T11:53:52;9.20;;;5.28;;
42912;SDS011;50720;54.324;18.558;2022-12-29T11:56:32;6.43;;;4.75;;
42912;SDS011;50720;54.324;18.558;2022-12-29T12:02:13;6.45;;;5.03;;
42912;SDS011;50720;54.324;18.558;2022-12-29T12:05:12;7.40;;;4.60;;
42912;SDS011;50720;54.324;18.558;2022-12-29T12:07:55;5.25;;;4.45;;
42912;SDS011;50720;54.324;18.558;2022-12-29T12:10:30;8.13;;;4.97;;
42912;SDS011;50720;54.324;18.558;2022-12-29T12:13:08;7.82;;;4.35;;
42912;SDS011;50720;54.324;18.558;2022-12-29T12:18:26;9.57;;;5.32;;
42912;SDS011;50720;54.324;18.558;2022-12-29T12:21:12;16.35;;;5.30;;
42912;SDS011;50720;54.324;18.558;2022-12-29T12:26:52;7.80;;;4.43;;
42912;SDS011;50720;54.324;18.558;2022-12-29T12:29:30;9.10;;;4.93;;
42912;SDS011;50720;54.324;18.558;2022-12-29T12:32:08;9.30;;;4.75;;
42912;SDS011;50720;54.324;18.558;2022-12-29T12:34:44;7.57;;;5.53;;
42912;SDS011;50720;54.324;18.558;2022-12-29T12:37:37;9.77;;;4.28;;
42912;SDS011;50720;54.324;18.558;2022-12-29T12:40:27;7.50;;;4.68;;
42912;SDS011;50720;54.324;18.558;2022-12-29T12:43:27;5.50;;;4.45;;
42912;SDS011;50720;54.324;18.558;2022-12-29T12:46:19;9.10;;;4.63;;
42912;SDS011;50720;54.324;18.558;2022-12-29T12:49:17;9.82;;;4.38;;
42912;SDS011;50720;54.324;18.558;2022-12-29T12:52:04;6.35;;;4.63;;
42912;SDS011;50720;54.324;18.558;2022-12-29T12:54:46;5.90;;;4.18;;
42912;SDS011;50720;54.324;18.558;2022-12-29T12:57:34;7.20;;;4.95;;
42912;SDS011;50720;54.324;18.558;2022-12-29T13:00:15;5.72;;;4.07;;
42912;SDS011;50720;54.324;18.558;2022-12-29T13:02:49;8.77;;;4.47;;
42912;SDS011;50720;54.324;18.558;2022-12-29T13:11:36;6.75;;;4.93;;
42912;SDS011;50720;54.324;18.558;2022-12-29T13:14:21;7.30;;;4.63;;
42912;SDS011;50720;54.324;18.558;2022-12-29T13:17:03;6.88;;;4.63;;
42912;SDS011;50720;54.324;18.558;2022-12-29T13:19:44;10.88;;;4.32;;
42912;SDS011;50720;54.324;18.558;2022-12-29T13:22:20;7.78;;;4.80;;
42912;SDS011;50720;54.324;18.558;2022-12-29T13:24:57;6.53;;;4.45;;
42912;SDS011;50720;54.324;18.558;2022-12-29T13:27:39;7.50;;;4.53;;
42912;SDS011;50720;54.324;18.558;2022-12-29T13:30:16;9.15;;;4.65;;
42912;SDS011;50720;54.324;18.558;2022-12-29T13:32:51;8.77;;;4.90;;
42912;SDS011;50720;54.324;18.558;2022-12-29T13:35:36;7.07;;;4.75;;
42912;SDS011;50720;54.324;18.558;2022-12-29T13:38:12;7.57;;;4.20;;
42912;SDS011;50720;54.324;18.558;2022-12-29T13:40:49;6.25;;;4.95;;
42912;SDS011;50720;54.324;18.558;2022-12-29T13:43:23;6.35;;;4.10;;
42912;SDS011;50720;54.324;18.558;2022-12-29T13:45:57;10.93;;;5.82;;
42912;SDS011;50720;54.324;18.558;2022-12-29T13:48:34;9.23;;;5.03;;
42912;SDS011;50720;54.324;18.558;2022-12-29T13:51:08;7.38;;;5.57;;
42912;SDS011;50720;54.324;18.558;2022-12-29T13:53:42;8.45;;;5.18;;
42912;SDS011;50720;54.324;18.558;2022-12-29T13:56:30;8.82;;;5.60;;
42912;SDS011;50720;54.324;18.558;2022-12-29T13:59:05;9.55;;;4.85;;
42912;SDS011;50720;54.324;18.558;2022-12-29T14:01:45;8.10;;;5.32;;
42912;SDS011;50720;54.324;18.558;2022-12-29T14:04:22;11.27;;;5.95;;
42912;SDS011;50720;54.324;18.558;2022-12-29T14:06:59;9.98;;;5.78;;
42912;SDS011;50720;54.324;18.558;2022-12-29T14:09:34;11.77;;;6.00;;
42912;SDS011;50720;54.324;18.558;2022-12-29T14:17:44;8.80;;;6.13;;
42912;SDS011;50720;54.324;18.558;2022-12-29T14:20:28;9.30;;;6.07;;
42912;SDS011;50720;54.324;18.558;2022-12-29T14:22:58;16.67;;;8.48;;
42912;SDS011;50720;54.324;18.558;2022-12-29T14:28:28;8.45;;;5.57;;
42912;SDS011;50720;54.324;18.558;2022-12-29T14:31:00;11.23;;;5.72;;
42912;SDS011;50720;54.324;18.558;2022-12-29T14:33:32;9.85;;;5.80;;
42912;SDS011;50720;54.324;18.558;2022-12-29T14:36:19;10.48;;;5.75;;
42912;SDS011;50720;54.324;18.558;2022-12-29T14:38:50;10.55;;;6.05;;
42912;SDS011;50720;54.324;18.558;2022-12-29T14:41:24;8.70;;;6.07;;
42912;SDS011;50720;54.324;18.558;2022-12-29T14:44:02;7.82;;;5.30;;
42912;SDS011;50720;54.324;18.558;2022-12-29T14:46:55;8.75;;;6.05;;
42912;SDS011;50720;54.324;18.558;2022-12-29T14:49:27;12.10;;;6.15;;
42912;SDS011;50720;54.324;18.558;2022-12-29T14:52:06;7.45;;;5.28;;
42912;SDS011;50720;54.324;18.558;2022-12-29T14:54:47;8.45;;;5.43;;
42912;SDS011;50720;54.324;18.558;2022-12-29T14:57:22;13.65;;;6.95;;
42912;SDS011;50720;54.324;18.558;2022-12-29T15:00:05;16.67;;;8.00;;
42912;SDS011;50720;54.324;18.558;2022-12-29T15:02:45;10.77;;;7.45;;
42912;SDS011;50720;54.324;18.558;2022-12-29T15:05:26;11.07;;;6.65;;
42912;SDS011;50720;54.324;18.558;2022-12-29T15:07:58;12.80;;;6.10;;
42912;SDS011;50720;54.324;18.558;2022-12-29T15:10:32;8.30;;;5.72;;
42912;SDS011;50720;54.324;18.558;2022-12-29T15:13:09;9.43;;;5.03;;
42912;SDS011;50720;54.324;18.558;2022-12-29T15:15:45;12.55;;;6.18;;
42912;SDS011;50720;54.324;18.558;2022-12-29T15:18:20;10.00;;;6.20;;
42912;SDS011;50720;54.324;18.558;2022-12-29T15:20:53;8.60;;;5.25;;
42912;SDS011;50720;54.324;18.558;2022-12-29T15:23:25;8.02;;;4.97;;
42912;SDS011;50720;54.324;18.558;2022-12-29T15:25:57;11.02;;;5.63;;
42912;SDS011;50720;54.324;18.558;2022-12-29T15:28:36;9.23;;;5.35;;
42912;SDS011;50720;54.324;18.558;2022-12-29T15:31:10;8.45;;;5.15;;
42912;SDS011;50720;54.324;18.558;2022-12-29T15:33:43;10.75;;;5.80;;
42912;SDS011;50720;54.324;18.558;2022-12-29T15:36:18;9.77;;;5.97;;
42912;SDS011;50720;54.324;18.558;2022-12-29T15:38:49;15.75;;;5.93;;
42912;SDS011;50720;54.324;18.558;2022-12-29T15:41:26;13.40;;;5.63;;
42912;SDS011;50720;54.324;18.558;2022-12-29T15:44:24;10.52;;;6.13;;
42912;SDS011;50720;54.324;18.558;2022-12-29T15:47:01;7.40;;;5.28;;